createdAt,value
2017-07-31T00:02:22.058Z,71.50
2017-07-31T00:04:49.552Z,71.80
2017-07-31T00:07:17.049Z,72.10
2017-07-31T00:09:50.432Z,72.10
2017-07-31T00:12:17.923Z,72.30
2017-07-31T00:14:45.432Z,73.50
2017-07-31T00:17:12.919Z,72.90
2017-07-31T00:19:40.427Z,73.10
2017-07-31T00:22:07.928Z,73.30
2017-07-31T00:24:35.412Z,73.30
2017-07-31T00:27:10.356Z,73.50
2017-07-31T00:29:37.845Z,73.50
2017-07-31T00:32:05.335Z,73.60
2017-07-31T00:34:40.024Z,73.70
2017-07-31T00:37:07.516Z,73.70
2017-07-31T00:39:35.026Z,73.70
2017-07-31T00:42:02.513Z,73.70
2017-07-31T00:44:30.352Z,73.80
2017-07-31T00:46:57.858Z,73.80
2017-07-31T00:49:25.428Z,73.90
2017-07-31T00:51:53.691Z,74.10
2017-07-31T00:54:21.200Z,74.00
2017-07-31T00:56:48.696Z,74.00
2017-07-31T00:59:16.195Z,74.00
2017-07-31T01:01:50.583Z,74.00
2017-07-31T01:04:21.415Z,74.00
2017-07-31T01:06:48.894Z,74.00
2017-07-31T01:09:22.693Z,73.90
2017-07-31T01:11:50.191Z,74.00
2017-07-31T01:14:17.695Z,74.00
2017-07-31T01:16:45.211Z,74.10
2017-07-31T01:19:20.266Z,74.10
2017-07-31T01:21:47.780Z,74.20
2017-07-31T01:24:21.356Z,74.40
2017-07-31T01:26:50.486Z,74.40
2017-07-31T01:29:17.982Z,74.50
2017-07-31T01:31:52.335Z,74.60
2017-07-31T01:34:19.837Z,74.80
2017-07-31T01:36:50.509Z,74.80
2017-07-31T01:39:21.068Z,75.00
2017-07-31T01:41:50.645Z,75.50
2017-07-31T01:44:21.282Z,75.50
2017-07-31T01:46:51.917Z,75.70
2017-07-31T01:49:19.707Z,75.80
2017-07-31T01:51:51.080Z,76.20
2017-07-31T01:54:21.868Z,76.10
2017-07-31T01:56:50.241Z,76.30
2017-07-31T01:59:17.715Z,76.20
2017-07-31T02:01:45.216Z,76.10
2017-07-31T02:04:20.178Z,76.20
2017-07-31T02:06:47.684Z,76.20
2017-07-31T02:09:22.119Z,76.30
2017-07-31T02:11:49.986Z,76.20
2017-07-31T02:14:20.828Z,76.20
2017-07-31T02:16:48.317Z,76.20
2017-07-31T02:19:21.780Z,76.00
2017-07-31T02:21:49.276Z,76.00
2017-07-31T02:24:16.774Z,75.90
2017-07-31T02:26:45.022Z,76.20
2017-07-31T02:29:20.974Z,76.10
2017-07-31T02:31:48.468Z,76.10
2017-07-31T02:34:15.950Z,76.00
2017-07-31T02:36:43.449Z,76.10
2017-07-31T02:39:10.961Z,75.70
2017-07-31T02:41:41.910Z,75.70
2017-07-31T02:44:10.428Z,75.80
2017-07-31T02:46:41.433Z,75.70
2017-07-31T02:49:10.582Z,75.90
2017-07-31T02:51:38.073Z,76.20
2017-07-31T02:54:11.438Z,76.40
2017-07-31T02:56:40.238Z,76.60
2017-07-31T02:59:07.735Z,76.60
2017-07-31T03:01:35.229Z,76.80
2017-07-31T03:04:03.004Z,78.10
2017-07-31T03:06:40.188Z,77.60
2017-07-31T03:09:07.698Z,78.00
2017-07-31T03:11:35.208Z,78.70
2017-07-31T03:14:02.696Z,79.20
2017-07-31T03:16:30.231Z,79.40
2017-07-31T03:19:01.291Z,79.40
2017-07-31T03:21:29.578Z,79.50
2017-07-31T03:23:57.077Z,79.40
2017-07-31T03:26:30.846Z,79.80
2017-07-31T03:29:01.364Z,79.70
2017-07-31T03:31:29.639Z,79.70
2017-07-31T03:33:57.179Z,79.50
2017-07-31T03:36:30.968Z,79.60
2017-07-31T03:38:58.778Z,79.30
2017-07-31T03:41:27.029Z,78.90
2017-07-31T03:43:54.523Z,78.70
2017-07-31T03:46:22.040Z,78.60
2017-07-31T03:48:50.234Z,79.30
2017-07-31T03:51:18.510Z,78.30
2017-07-31T03:53:46.012Z,78.30
2017-07-31T03:56:13.863Z,78.50
2017-07-31T03:58:51.293Z,78.70
2017-07-31T04:01:19.075Z,78.70
2017-07-31T04:03:46.566Z,78.80
2017-07-31T04:06:20.165Z,78.90
2017-07-31T04:08:50.586Z,79.00
2017-07-31T04:11:22.259Z,79.40
2017-07-31T04:13:50.463Z,79.30
2017-07-31T04:16:22.500Z,79.40
2017-07-31T04:18:50.723Z,79.50
2017-07-31T04:21:18.206Z,79.40
2017-07-31T04:23:52.742Z,79.50
2017-07-31T04:26:21.008Z,79.40
2017-07-31T04:28:49.295Z,80.20
2017-07-31T04:31:22.727Z,79.40
2017-07-31T04:33:50.476Z,79.60
2017-07-31T04:36:21.159Z,79.90
2017-07-31T04:38:48.634Z,79.80
2017-07-31T04:41:16.149Z,79.80
2017-07-31T04:43:43.643Z,79.50
2017-07-31T04:46:11.150Z,79.40
2017-07-31T04:48:42.056Z,79.20
2017-07-31T04:51:20.502Z,78.90
2017-07-31T04:53:48.002Z,78.90
2017-07-31T04:56:15.486Z,78.80
2017-07-31T04:58:49.808Z,78.60
2017-07-31T05:01:21.650Z,78.60
2017-07-31T05:03:49.166Z,78.50
2017-07-31T05:06:16.666Z,78.20
2017-07-31T05:08:45.276Z,78.00
2017-07-31T05:11:20.678Z,77.90
2017-07-31T05:13:51.675Z,77.90
2017-07-31T05:16:21.000Z,77.90
2017-07-31T05:18:51.910Z,78.10
2017-07-31T05:21:19.408Z,78.10
2017-07-31T05:23:52.842Z,78.00
2017-07-31T05:26:31.086Z,78.10
2017-07-31T05:28:58.599Z,78.10
2017-07-31T05:31:32.170Z,77.90
2017-07-31T05:33:59.944Z,77.60
2017-07-31T05:36:30.804Z,77.20
2017-07-31T05:38:58.294Z,76.80
2017-07-31T05:41:31.806Z,76.40
2017-07-31T05:44:00.539Z,76.10
2017-07-31T05:46:28.048Z,75.90
2017-07-31T05:49:01.323Z,76.60
2017-07-31T05:51:29.092Z,75.90
2017-07-31T05:53:56.582Z,75.80
2017-07-31T05:56:30.548Z,75.60
2017-07-31T05:58:58.807Z,75.40
2017-07-31T06:01:32.820Z,75.30
2017-07-31T06:04:00.307Z,75.40
2017-07-31T06:06:27.802Z,75.40
2017-07-31T06:08:55.314Z,75.10
2017-07-31T06:11:30.052Z,74.70
2017-07-31T06:14:00.959Z,74.50
2017-07-31T06:16:28.476Z,74.50
2017-07-31T06:18:56.252Z,74.30
2017-07-31T06:21:30.469Z,74.20
2017-07-31T06:23:58.300Z,73.00
2017-07-31T06:26:25.787Z,72.90
2017-07-31T06:29:00.678Z,72.80
2017-07-31T06:31:28.174Z,73.20
2017-07-31T06:33:55.677Z,71.70
2017-07-31T06:36:30.118Z,71.50
2017-07-31T06:39:00.940Z,70.60
2017-07-31T06:41:29.560Z,70.50
2017-07-31T06:43:57.055Z,70.30
2017-07-31T06:46:30.770Z,70.20
2017-07-31T06:48:58.257Z,69.80
2017-07-31T06:51:31.905Z,69.60
2017-07-31T06:53:59.397Z,69.20
2017-07-31T06:56:33.090Z,69.10
2017-07-31T06:59:10.449Z,68.60
2017-07-31T07:01:41.568Z,67.70
2017-07-31T07:04:10.884Z,67.40
2017-07-31T07:06:38.409Z,67.30
2017-07-31T07:09:06.882Z,66.30
2017-07-31T07:11:40.490Z,66.30
2017-07-31T07:14:07.999Z,65.70
2017-07-31T07:16:41.819Z,65.50
2017-07-31T07:19:09.659Z,65.10
2017-07-31T07:21:37.145Z,65.00
2017-07-31T07:24:04.646Z,64.50
2017-07-31T07:26:40.046Z,64.60
2017-07-31T07:29:10.917Z,64.60
2017-07-31T07:31:40.617Z,64.20
2017-07-31T07:34:11.233Z,64.20
2017-07-31T07:36:39.043Z,64.20
2017-07-31T07:39:06.549Z,64.10
2017-07-31T07:41:40.169Z,64.80
2017-07-31T07:44:07.655Z,63.80
2017-07-31T07:46:42.574Z,63.30
2017-07-31T07:49:20.719Z,63.50
2017-07-31T07:51:51.970Z,62.90
2017-07-31T07:54:19.467Z,63.00
2017-07-31T07:56:50.794Z,62.00
2017-07-31T07:59:21.427Z,61.30
2017-07-31T08:01:48.921Z,60.80
2017-07-31T08:04:22.358Z,60.40
2017-07-31T08:06:50.163Z,60.00
2017-07-31T08:09:20.946Z,59.80
2017-07-31T08:11:48.441Z,59.70
2017-07-31T08:14:15.963Z,59.40
2017-07-31T08:16:43.478Z,59.00
2017-07-31T08:19:21.126Z,58.10
2017-07-31T08:21:48.915Z,57.20
2017-07-31T08:24:16.417Z,57.00
2017-07-31T08:26:43.915Z,56.60
2017-07-31T08:29:11.782Z,55.70
2017-07-31T08:31:39.276Z,55.40
2017-07-31T08:34:12.682Z,55.70
2017-07-31T08:36:40.276Z,56.00
2017-07-31T08:39:07.774Z,55.90
2017-07-31T08:41:35.301Z,55.80
2017-07-31T08:44:10.797Z,55.50
2017-07-31T08:46:38.313Z,55.00
2017-07-31T08:49:05.830Z,55.10
2017-07-31T08:51:33.335Z,55.20
2017-07-31T08:54:00.833Z,54.90
2017-07-31T08:56:31.796Z,54.50
2017-07-31T08:59:00.295Z,54.30
2017-07-31T09:01:31.338Z,53.40
2017-07-31T09:03:58.835Z,52.60
2017-07-31T09:06:26.329Z,52.20
2017-07-31T09:09:00.513Z,52.00
2017-07-31T09:11:28.006Z,52.00
2017-07-31T09:14:01.879Z,50.90
2017-07-31T09:16:29.427Z,50.30
2017-07-31T09:18:57.259Z,49.80
2017-07-31T09:21:24.743Z,49.50
2017-07-31T09:24:00.478Z,50.00
2017-07-31T09:26:27.970Z,48.50
2017-07-31T09:29:01.903Z,48.90
2017-07-31T09:31:29.416Z,48.50
2017-07-31T09:33:56.934Z,48.20
2017-07-31T09:36:24.452Z,47.90
2017-07-31T09:39:00.299Z,47.20
2017-07-31T09:41:31.135Z,47.20
2017-07-31T09:44:01.812Z,47.30
2017-07-31T09:46:30.429Z,46.90
2017-07-31T09:49:01.138Z,46.90
2017-07-31T09:51:28.651Z,46.30
2017-07-31T09:53:56.162Z,45.80
2017-07-31T09:56:24.426Z,44.00
2017-07-31T09:59:00.239Z,43.90
2017-07-31T10:01:27.734Z,43.50
2017-07-31T10:03:55.493Z,43.40
2017-07-31T10:06:30.195Z,43.30
2017-07-31T10:09:01.318Z,41.20
2017-07-31T10:11:30.618Z,41.20
2017-07-31T10:14:01.450Z,42.30
2017-07-31T10:16:28.988Z,43.20
2017-07-31T10:19:02.405Z,43.20
2017-07-31T10:21:29.903Z,42.80
2017-07-31T10:24:00.743Z,42.60
2017-07-31T10:26:31.313Z,42.70
2017-07-31T10:28:58.815Z,42.40
2017-07-31T10:31:32.096Z,42.30
2017-07-31T10:33:59.600Z,42.40
2017-07-31T10:36:30.892Z,41.50
2017-07-31T10:38:58.402Z,41.80
2017-07-31T10:41:25.899Z,42.10
2017-07-31T10:43:53.414Z,43.10
2017-07-31T10:46:20.944Z,43.90
2017-07-31T10:48:48.460Z,44.00
2017-07-31T10:51:16.720Z,43.40
2017-07-31T10:53:44.519Z,43.20
2017-07-31T10:56:12.025Z,42.10
2017-07-31T10:58:39.541Z,41.30
2017-07-31T11:01:07.043Z,41.30
2017-07-31T11:03:40.196Z,40.70
2017-07-31T11:06:11.014Z,42.30
2017-07-31T11:08:41.584Z,41.00
2017-07-31T11:11:09.323Z,40.40
2017-07-31T11:13:36.814Z,40.80
2017-07-31T11:16:04.315Z,41.40
2017-07-31T11:18:32.599Z,41.90
2017-07-31T11:21:00.103Z,41.90
2017-07-31T11:23:27.621Z,41.90
2017-07-31T11:26:00.884Z,43.50
2017-07-31T11:28:32.185Z,43.40
2017-07-31T11:30:59.684Z,44.20
2017-07-31T11:33:27.184Z,44.80
2017-07-31T11:35:54.699Z,45.10
2017-07-31T11:38:22.183Z,44.80
2017-07-31T11:41:00.548Z,44.00
2017-07-31T11:43:31.384Z,43.90
2017-07-31T11:45:59.179Z,44.00
2017-07-31T11:48:26.714Z,44.20
2017-07-31T11:51:00.234Z,44.00
2017-07-31T11:53:27.715Z,45.40
2017-07-31T11:55:55.225Z,45.70
2017-07-31T11:58:30.723Z,46.10
2017-07-31T12:00:58.259Z,46.40
2017-07-31T12:03:32.047Z,46.60
2017-07-31T12:06:00.862Z,46.40
2017-07-31T12:08:31.753Z,46.20
2017-07-31T12:11:00.851Z,45.80
2017-07-31T12:13:32.000Z,45.70
2017-07-31T12:15:59.504Z,45.20
2017-07-31T12:18:30.835Z,43.60
2017-07-31T12:20:58.350Z,43.50
2017-07-31T12:23:31.732Z,43.80
2017-07-31T12:26:00.601Z,43.80
2017-07-31T12:28:28.876Z,44.50
2017-07-31T12:30:56.643Z,44.50
2017-07-31T12:33:24.915Z,43.80
2017-07-31T12:36:00.886Z,43.70
2017-07-31T12:38:28.399Z,43.40
2017-07-31T12:41:02.290Z,43.30
2017-07-31T12:43:29.796Z,43.20
2017-07-31T12:46:00.423Z,43.50
2017-07-31T12:48:32.070Z,43.20
2017-07-31T12:50:59.561Z,43.20
2017-07-31T12:53:27.058Z,43.30
2017-07-31T12:55:54.553Z,41.60
2017-07-31T12:58:30.607Z,40.90
2017-07-31T13:01:01.104Z,41.30
2017-07-31T13:03:28.597Z,41.90
2017-07-31T13:05:56.216Z,41.40
2017-07-31T13:08:23.713Z,40.60
2017-07-31T13:11:01.608Z,41.70
2017-07-31T13:13:30.409Z,41.20
2017-07-31T13:15:58.217Z,40.30
2017-07-31T13:18:25.744Z,41.10
2017-07-31T13:20:53.227Z,39.90
2017-07-31T13:23:20.768Z,37.60
2017-07-31T13:25:48.276Z,36.10
2017-07-31T13:28:22.029Z,34.40
2017-07-31T13:30:50.840Z,33.40
2017-07-31T13:33:18.710Z,31.20
2017-07-31T13:35:46.190Z,30.80
2017-07-31T13:38:20.681Z,30.50
2017-07-31T13:40:48.176Z,31.70
2017-07-31T13:43:15.674Z,32.80
2017-07-31T13:45:43.183Z,34.10
2017-07-31T13:48:10.667Z,35.90
2017-07-31T13:50:41.954Z,35.80
2017-07-31T13:53:09.477Z,36.10
2017-07-31T13:55:43.073Z,36.60
2017-07-31T13:58:20.382Z,37.60
2017-07-31T14:00:51.655Z,37.40
2017-07-31T14:03:20.886Z,37.10
2017-07-31T14:05:48.392Z,36.70
2017-07-31T14:08:16.681Z,37.20
2017-07-31T14:10:50.531Z,37.20
2017-07-31T14:13:21.077Z,37.80
2017-07-31T14:15:51.895Z,38.10
2017-07-31T14:18:20.878Z,39.80
2017-07-31T14:20:52.120Z,41.60
2017-07-31T14:23:21.011Z,43.30
2017-07-31T14:25:48.518Z,44.30
2017-07-31T14:28:16.022Z,45.60
2017-07-31T14:30:50.259Z,46.20
2017-07-31T14:33:17.758Z,46.70
2017-07-31T14:35:45.546Z,47.50
2017-07-31T14:38:13.827Z,49.00
2017-07-31T14:40:51.774Z,48.90
2017-07-31T14:43:19.268Z,49.80
2017-07-31T14:45:47.884Z,51.10
2017-07-31T14:48:21.336Z,51.00
2017-07-31T14:50:50.474Z,51.80
2017-07-31T14:53:21.667Z,52.40
2017-07-31T14:55:49.183Z,53.10
2017-07-31T14:58:22.663Z,54.00
2017-07-31T15:00:50.168Z,54.40
2017-07-31T15:03:21.136Z,54.70
2017-07-31T15:05:48.643Z,54.10
2017-07-31T15:08:22.378Z,54.00
2017-07-31T15:10:49.979Z,53.40
2017-07-31T15:13:18.248Z,53.40
2017-07-31T15:15:46.531Z,53.60
2017-07-31T15:18:20.641Z,53.60
2017-07-31T15:20:48.437Z,54.00
2017-07-31T15:23:15.965Z,54.50
2017-07-31T15:25:43.457Z,54.60
2017-07-31T15:28:10.964Z,55.30
2017-07-31T15:30:40.211Z,56.70
2017-07-31T15:33:07.720Z,56.70
2017-07-31T15:35:35.222Z,57.30
2017-07-31T15:38:11.072Z,57.00
2017-07-31T15:40:38.571Z,57.00
2017-07-31T15:43:06.080Z,56.80
2017-07-31T15:45:40.572Z,56.90
2017-07-31T15:48:08.066Z,57.30
2017-07-31T15:50:35.559Z,57.40
2017-07-31T15:53:03.063Z,57.60
2017-07-31T15:55:41.354Z,58.10
2017-07-31T15:58:08.855Z,58.10
2017-07-31T16:00:36.343Z,57.80
2017-07-31T16:03:04.112Z,58.10
2017-07-31T16:05:41.341Z,58.20
2017-07-31T16:08:11.413Z,57.50
2017-07-31T16:10:40.656Z,57.40
2017-07-31T16:13:08.165Z,57.70
2017-07-31T16:15:41.430Z,57.90
2017-07-31T16:18:08.939Z,57.70
2017-07-31T16:20:36.438Z,58.00
2017-07-31T16:23:11.308Z,58.00
2017-07-31T16:25:39.095Z,57.90
2017-07-31T16:28:06.601Z,58.20
2017-07-31T16:30:34.108Z,58.70
2017-07-31T16:33:11.923Z,59.10
2017-07-31T16:35:39.408Z,59.50
2017-07-31T16:38:23.256Z,60.50
2017-07-31T16:41:00.380Z,60.50
2017-07-31T16:43:40.031Z,60.60
2017-07-31T16:46:22.729Z,60.40
2017-07-31T16:49:02.719Z,60.50
2017-07-31T16:51:30.214Z,60.70
2017-07-31T16:54:00.627Z,61.10
2017-07-31T16:56:28.905Z,61.10
2017-07-31T16:58:56.392Z,61.00
2017-07-31T17:01:24.269Z,60.90
2017-07-31T17:04:00.019Z,60.70
2017-07-31T17:06:31.197Z,60.30
2017-07-31T17:08:58.683Z,59.80
2017-07-31T17:11:26.176Z,59.30
2017-07-31T17:13:53.675Z,59.10
2017-07-31T17:16:31.075Z,59.30
2017-07-31T17:19:01.925Z,59.00
2017-07-31T17:21:30.187Z,58.30
2017-07-31T17:23:57.687Z,58.20
2017-07-31T17:26:25.533Z,58.50
2017-07-31T17:28:53.039Z,58.00
2017-07-31T17:31:20.540Z,58.10
2017-07-31T17:33:51.900Z,58.50
2017-07-31T17:36:19.400Z,58.80
2017-07-31T17:38:52.844Z,59.00
2017-07-31T17:41:21.098Z,59.50
2017-07-31T17:43:52.374Z,59.50
2017-07-31T17:46:20.589Z,59.90
2017-07-31T17:48:48.080Z,60.60
2017-07-31T17:51:15.858Z,61.10
2017-07-31T17:53:50.208Z,62.10
2017-07-31T17:56:18.068Z,62.10
2017-07-31T17:58:45.561Z,62.20
2017-07-31T18:01:13.064Z,62.40
2017-07-31T18:03:50.525Z,62.40
2017-07-31T18:06:18.043Z,62.40
2017-07-31T18:08:45.888Z,62.30
2017-07-31T18:11:13.391Z,62.20
2017-07-31T18:13:40.870Z,62.60
2017-07-31T18:16:08.681Z,62.10
2017-07-31T18:18:36.187Z,62.20
2017-07-31T18:21:03.686Z,62.50
2017-07-31T18:23:31.203Z,62.80
2017-07-31T18:26:00.576Z,62.70
2017-07-31T18:28:28.326Z,63.00
2017-07-31T18:31:02.426Z,62.90
2017-07-31T18:33:30.298Z,62.80
2017-07-31T18:35:57.788Z,62.70
2017-07-31T18:38:31.448Z,62.90
2017-07-31T18:41:01.133Z,62.90
2017-07-31T18:43:28.641Z,62.90
2017-07-31T18:46:02.330Z,63.10
2017-07-31T18:48:29.837Z,63.40
2017-07-31T18:50:57.337Z,63.70
2017-07-31T18:53:32.292Z,64.20
2017-07-31T18:55:59.803Z,64.10
2017-07-31T18:58:27.308Z,64.70
2017-07-31T19:00:54.820Z,64.80
2017-07-31T19:03:30.590Z,65.00
2017-07-31T19:06:00.026Z,65.40
2017-07-31T19:08:31.117Z,65.20
2017-07-31T19:11:02.107Z,65.50
2017-07-31T19:13:30.216Z,65.40
2017-07-31T19:16:00.726Z,65.60
2017-07-31T19:18:28.240Z,66.00
2017-07-31T19:21:02.684Z,67.60
2017-07-31T19:23:30.554Z,67.60
2017-07-31T19:25:58.057Z,69.00
2017-07-31T19:28:25.569Z,69.70
2017-07-31T19:30:53.077Z,69.30
2017-07-31T19:33:30.725Z,69.50
2017-07-31T19:36:02.486Z,69.60
2017-07-31T19:38:31.186Z,69.70
2017-07-31T19:40:58.692Z,69.10
2017-07-31T19:43:26.185Z,68.80
2017-07-31T19:45:53.695Z,69.20
2017-07-31T19:48:31.502Z,69.40
2017-07-31T19:50:58.994Z,69.70
2017-07-31T19:53:26.470Z,69.90
2017-07-31T19:55:54.318Z,70.00
2017-07-31T19:58:21.821Z,70.30
2017-07-31T20:00:49.320Z,70.30
2017-07-31T20:03:17.104Z,70.60
2017-07-31T20:05:50.714Z,71.10
2017-07-31T20:08:18.495Z,71.50
2017-07-31T20:10:45.984Z,71.60
2017-07-31T20:13:20.761Z,72.00
2017-07-31T20:15:51.406Z,72.50
2017-07-31T20:18:18.892Z,72.90
2017-07-31T20:20:52.673Z,73.10
2017-07-31T20:23:20.167Z,73.40
2017-07-31T20:25:50.759Z,73.60
2017-07-31T20:28:18.604Z,73.50
2017-07-31T20:30:46.090Z,73.60
2017-07-31T20:33:13.592Z,74.00
2017-07-31T20:35:41.386Z,74.00
2017-07-31T20:38:10.754Z,73.90
2017-07-31T20:40:38.242Z,73.80
2017-07-31T20:43:12.841Z,73.90
2017-07-31T20:45:50.085Z,73.70
2017-07-31T20:48:17.859Z,73.90
2017-07-31T20:50:45.360Z,74.10
2017-07-31T20:53:21.000Z,74.20
2017-07-31T20:55:48.490Z,74.40
2017-07-31T20:58:15.993Z,74.50
2017-07-31T21:00:43.764Z,75.30
2017-07-31T21:03:11.276Z,74.60
2017-07-31T21:05:38.775Z,74.60
2017-07-31T21:08:12.058Z,74.70
2017-07-31T21:10:39.544Z,74.80
2017-07-31T21:13:07.303Z,74.90
2017-07-31T21:15:40.871Z,74.80
2017-07-31T21:18:08.646Z,74.80
2017-07-31T21:20:36.153Z,74.80
2017-07-31T21:23:10.795Z,74.80
2017-07-31T21:25:38.294Z,74.80
2017-07-31T21:28:11.835Z,74.70
2017-07-31T21:30:40.315Z,74.80
2017-07-31T21:33:07.802Z,74.70
2017-07-31T21:35:41.390Z,75.00
2017-07-31T21:38:10.180Z,75.00
2017-07-31T21:40:38.190Z,74.90
2017-07-31T21:43:05.669Z,74.80
2017-07-31T21:45:33.163Z,74.70
2017-07-31T21:48:11.315Z,74.60
2017-07-31T21:50:38.813Z,74.70
2017-07-31T21:53:07.419Z,75.10
2017-07-31T21:55:41.201Z,75.00
2017-07-31T21:58:09.013Z,75.30
2017-07-31T22:00:36.510Z,75.60
2017-07-31T22:03:10.432Z,75.70
2017-07-31T22:05:37.932Z,76.70
2017-07-31T22:08:11.610Z,76.20
2017-07-31T22:10:39.100Z,76.50
2017-07-31T22:13:12.782Z,76.70
2017-07-31T22:15:40.283Z,76.80
2017-07-31T22:18:13.840Z,76.90
2017-07-31T22:20:57.005Z,77.00
2017-07-31T22:23:24.844Z,77.10
2017-07-31T22:26:00.347Z,77.10
2017-07-31T22:28:31.418Z,77.20
2017-07-31T22:31:00.575Z,77.40
2017-07-31T22:33:28.073Z,77.30
2017-07-31T22:36:01.452Z,77.30
2017-07-31T22:38:30.258Z,77.40
2017-07-31T22:40:58.018Z,77.50
2017-07-31T22:43:25.520Z,77.60
2017-07-31T22:46:00.718Z,77.50
2017-07-31T22:48:28.989Z,77.50
2017-07-31T22:50:56.513Z,77.30
2017-07-31T22:53:24.027Z,77.50
2017-07-31T22:55:51.532Z,78.40
2017-07-31T22:58:19.343Z,79.30
2017-07-31T23:00:52.649Z,79.70
2017-07-31T23:03:20.806Z,79.70
2017-07-31T23:05:48.319Z,79.60
2017-07-31T23:08:22.472Z,79.40
2017-07-31T23:10:50.759Z,79.10
2017-07-31T23:13:19.020Z,79.00
2017-07-31T23:15:47.296Z,78.90
2017-07-31T23:18:15.574Z,78.60
2017-07-31T23:20:44.182Z,78.20
2017-07-31T23:23:21.625Z,78.10
2017-07-31T23:25:49.418Z,77.70
2017-07-31T23:28:17.711Z,77.00
2017-07-31T23:30:51.538Z,76.90
2017-07-31T23:33:22.000Z,76.70
2017-07-31T23:35:49.491Z,76.50
2017-07-31T23:38:21.336Z,76.20
2017-07-31T23:40:51.788Z,76.10
2017-07-31T23:43:20.284Z,76.30
2017-07-31T23:45:50.915Z,76.10
2017-07-31T23:48:21.943Z,76.10
2017-07-31T23:50:51.026Z,76.00
2017-07-31T23:53:20.522Z,76.00
2017-07-31T23:55:51.146Z,75.90
2017-07-31T23:58:18.635Z,76.00
